| time (UTC) | temp C | wind direction | speed KPH | gust KPH | rain 1hr cm | rain 24hr cm | rain mn cm | humidity % | barometer mb |
| 20260510103533 | 6 | 45 | 1.6 | 4.8 | 0.00 | 0.00 | 0.00 | 81 | 1014.6 |
| 20260510102528 | 6 | 90 | 1.6 | 3.2 | 0.00 | 0.00 | 0.00 | 81 | 1014.3 |
| 20260510101525 | 7 | 0.0 | 0.0 | 0.00 | 0.00 | 0.00 | 80 | 1014.3 | |
| 20260510100532 | 7 | 77 | 1.6 | 3.2 | 0.00 | 0.00 | 0.00 | 80 | 1014.2 |
| 20260510095532 | 7 | 93 | 1.6 | 4.8 | 0.00 | 0.00 | 0.00 | 80 | 1014.1 |
| 20260510094524 | 7 | 68 | 0.0 | 1.6 | 0.00 | 0.00 | 0.00 | 80 | 1014.1 |
| 20260510093518 | 7 | 159 | 3.2 | 6.4 | 0.00 | 0.00 | 0.00 | 80 | 1013.8 |
| 20260510092553 | 7 | 0.0 | 0.0 | 0.00 | 0.00 | 0.00 | 80 | 1013.6 | |
| 20260510091527 | 7 | 90 | 0.0 | 1.6 | 0.00 | 0.00 | 0.00 | 80 | 1013.4 |
| 20260510090525 | 7 | 0.0 | 0.0 | 0.00 | 0.00 | 0.00 | 80 | 1013.3 | |
| 20260510085544 | 7 | 0.0 | 0.0 | 0.00 | 0.00 | 0.00 | 79 | 1013.3 | |
| 20260510084525 | 7 | 0.0 | 0.0 | 0.00 | 0.00 | 0.00 | 79 | 1013.3 | |
| 20260510083522 | 7 | 0.0 | 0.0 | 0.00 | 0.00 | 0.00 | 79 | 1012.9 | |
| 20260510082517 | 7 | 0.0 | 0.0 | 0.00 | 0.00 | 0.00 | 78 | 1012.7 | |
| 20260510081530 | 7 | 0.0 | 0.0 | 0.00 | 0.00 | 0.00 | 78 | 1012.7 | |
| 20260510080525 | 7 | 0.0 | 0.0 | 0.00 | 0.00 | 0.00 | 78 | 1012.5 | |
| 20260510075515 | 8 | 0.0 | 0.0 | 0.00 | 0.00 | 0.00 | 78 | 1012.3 | |
| 20260510074518 | 8 | 0.0 | 0.0 | 0.00 | 0.00 | 0.00 | 78 | 1012.2 | |
| 20260510073530 | 8 | 0.0 | 0.0 | 0.00 | 0.00 | 0.00 | 78 | 1012.2 | |
| 20260510072525 | 8 | 158 | 0.0 | 3.2 | 0.00 | 0.00 | 0.00 | 78 | 1012.0 |
| 20260510071520 | 8 | 68 | 0.0 | 3.2 | 0.00 | 0.00 | 0.00 | 79 | 1011.8 |
| 20260510070515 | 9 | 103 | 1.6 | 3.2 | 0.00 | 0.00 | 0.00 | 79 | 1011.7 |
| 20260510065524 | 9 | 117 | 1.6 | 4.8 | 0.00 | 0.00 | 0.00 | 80 | 1011.7 |
| 20260510064519 | 9 | 248 | 0.0 | 1.6 | 0.00 | 0.00 | 0.00 | 81 | 1011.5 |
| 20260510063526 | 9 | 109 | 1.6 | 3.2 | 0.00 | 0.00 | 0.00 | 82 | 1011.6 |
| 20260510062521 | 9 | 65 | 1.6 | 3.2 | 0.00 | 0.00 | 0.00 | 83 | 1011.6 |
| 20260510061516 | 10 | 83 | 1.6 | 3.2 | 0.00 | 0.00 | 0.00 | 83 | 1011.5 |
| 20260510060518 | 10 | 74 | 3.2 | 6.4 | 0.00 | 0.00 | 0.00 | 84 | 1011.3 |
| 20260510055532 | 10 | 103 | 0.0 | 3.2 | 0.00 | 0.00 | 0.00 | 84 | 1011.1 |
| 20260510054527 | 11 | 88 | 3.2 | 4.8 | 0.00 | 0.00 | 0.00 | 85 | 1011.0 |
| 20260510053523 | 11 | 86 | 3.2 | 4.8 | 0.00 | 0.00 | 0.00 | 86 | 1010.9 |
| 20260510052517 | 11 | 113 | 0.0 | 1.6 | 0.00 | 0.00 | 0.00 | 86 | 1010.8 |
| 20260510051552 | 11 | 77 | 1.6 | 3.2 | 0.00 | 0.00 | 0.00 | 86 | 1010.4 |
| 20260510050528 | 11 | 63 | 1.6 | 4.8 | 0.00 | 0.00 | 0.00 | 86 | 1010.2 |
| 20260510045522 | 11 | 108 | 1.6 | 6.4 | 0.00 | 0.00 | 0.00 | 86 | 1010.0 |
| 20260510044517 | 11 | 98 | 4.8 | 6.4 | 0.00 | 0.00 | 0.00 | 86 | 1009.3 |
| 20260510043532 | 11 | 104 | 3.2 | 4.8 | 0.00 | 0.00 | 0.00 | 86 | 1009.1 |
| 20260510042528 | 11 | 129 | 3.2 | 4.8 | 0.00 | 0.00 | 0.00 | 86 | 1008.9 |
| 20260510041523 | 11 | 106 | 4.8 | 6.4 | 0.00 | 0.00 | 0.00 | 86 | 1008.9 |
| 20260510040517 | 11 | 119 | 3.2 | 3.2 | 0.00 | 0.00 | 0.00 | 86 | 1008.9 |
| 20260510035531 | 11 | 96 | 1.6 | 4.8 | 0.00 | 0.00 | 0.00 | 86 | 1009.0 |
| 20260510034527 | 11 | 62 | 4.8 | 8.0 | 0.00 | 0.00 | 0.00 | 86 | 1009.1 |
| 20260510033516 | 11 | 105 | 4.8 | 8.0 | 0.00 | 0.00 | 0.00 | 87 | 1009.1 |
| 20260510032517 | 11 | 89 | 4.8 | 6.4 | 0.00 | 0.00 | 0.00 | 87 | 1009.1 |
| 20260510031531 | 11 | 94 | 4.8 | 8.0 | 0.00 | 0.00 | 0.00 | 87 | 1009.1 |
| 20260510030526 | 11 | 115 | 1.6 | 4.8 | 0.00 | 0.00 | 0.00 | 89 | 1009.0 |
| 20260510025521 | 11 | 0.0 | 3.2 | 0.00 | 0.00 | 0.00 | 89 | 1008.9 | |
| 20260510024538 | 11 | 85 | 1.6 | 4.8 | 0.00 | 0.00 | 0.00 | 90 | 1008.9 |
| 20260510023650 | 11 | 86 | 3.2 | 6.4 | 0.00 | 0.00 | 0.00 | 91 | 1009.6 |
| 20260510022540 | 10 | 70 | 6.4 | 11.3 | 0.00 | 0.00 | 0.00 | 91 | 1008.7 |
| 20260510021527 | 10 | 0.0 | 0.0 | 0.00 | 0.00 | 0.00 | 90 | 1008.7 | |
| 20260510020523 | 10 | 0.0 | 0.0 | 0.00 | 0.00 | 0.00 | 90 | 1008.7 | |
| 20260510015517 | 10 | 0.0 | 0.0 | 0.00 | 0.00 | 0.00 | 90 | 1008.6 | |
| 20260510014519 | 10 | 0.0 | 0.0 | 0.00 | 0.00 | 0.00 | 90 | 1008.4 | |
| 20260510013532 | 10 | 103 | 1.6 | 3.2 | 0.00 | 0.00 | 0.00 | 89 | 1008.5 |
| 20260510012528 | 10 | 75 | 1.6 | 4.8 | 0.00 | 0.00 | 0.00 | 89 | 1008.4 |
| 20260510011523 | 10 | 90 | 1.6 | 4.8 | 0.00 | 0.00 | 0.00 | 89 | 1008.3 |
| 20260510010519 | 10 | 68 | 0.0 | 3.2 | 0.00 | 0.00 | 0.00 | 89 | 1008.2 |
| 20260510005553 | 11 | 101 | 0.0 | 3.2 | 0.00 | 0.00 | 0.00 | 89 | 1008.1 |
| 20260510004527 | 11 | 43 | 1.6 | 6.4 | 0.00 | 0.00 | 0.00 | 90 | 1008.1 |
| 20260510003523 | 11 | 114 | 1.6 | 4.8 | 0.00 | 0.00 | 0.00 | 90 | 1008.2 |
| 20260510002519 | 11 | 97 | 3.2 | 4.8 | 0.00 | 0.00 | 0.00 | 90 | 1008.0 |
| 20260510001532 | 11 | 92 | 1.6 | 4.8 | 0.00 | 0.00 | 0.00 | 91 | 1008.0 |
| 20260510000527 | 11 | 138 | 4.8 | 11.3 | 0.00 | 0.00 | 0.00 | 90 | 1007.9 |
| 20260509235522 | 11 | 87 | 3.2 | 6.4 | 0.00 | 0.00 | 0.00 | 90 | 1007.8 |
| 20260509234518 | 11 | 105 | 3.2 | 6.4 | 0.00 | 0.00 | 0.00 | 89 | 1008.0 |
| 20260509233525 | 11 | 82 | 3.2 | 6.4 | 0.00 | 0.00 | 0.00 | 88 | 1008.2 |
| 20260509232527 | 11 | 104 | 4.8 | 6.4 | 0.00 | 0.00 | 0.00 | 86 | 1008.5 |
| 20260509231522 | 12 | 85 | 4.8 | 8.0 | 0.00 | 0.00 | 0.00 | 82 | 1007.5 |
| 20260509230532 | 13 | 84 | 3.2 | 4.8 | 0.00 | 0.00 | 0.00 | 75 | 1007.8 |
| 20260509225533 | 15 | 84 | 4.8 | 8.0 | 0.00 | 0.00 | 0.00 | 70 | 1008.2 |
| 20260509224528 | 17 | 75 | 9.7 | 16.1 | 0.00 | 0.00 | 0.00 | 57 | 1006.5 |
| 20260509223522 | 18 | 68 | 6.4 | 11.3 | 0.00 | 0.00 | 0.00 | 50 | 1005.3 |
| 20260509222521 | 18 | 77 | 6.4 | 9.7 | 0.00 | 0.00 | 0.00 | 50 | 1005.6 |
| 20260509221532 | 18 | 104 | 6.4 | 11.3 | 0.00 | 0.00 | 0.00 | 50 | 1005.6 |
| 20260509220522 | 18 | 77 | 8.0 | 14.5 | 0.00 | 0.00 | 0.00 | 49 | 1005.6 |
| 20260509215517 | 18 | 101 | 8.0 | 12.9 | 0.00 | 0.00 | 0.00 | 50 | 1005.4 |
| 20260509214525 | 18 | 82 | 11.3 | 12.9 | 0.00 | 0.00 | 0.00 | 50 | 1005.3 |
| 20260509213520 | 18 | 149 | 12.9 | 17.7 | 0.00 | 0.00 | 0.00 | 50 | 1005.3 |
| 20260509212536 | 18 | 56 | 9.7 | 16.1 | 0.00 | 0.00 | 0.00 | 50 | 1005.4 |
| 20260509211517 | 18 | 103 | 12.9 | 29.0 | 0.00 | 0.00 | 0.00 | 51 | 1005.6 |
| 20260509210613 | 18 | 85 | 8.0 | 11.3 | 0.00 | 0.00 | 0.00 | 51 | 1005.8 |
| 20260509205526 | 18 | 114 | 8.0 | 17.7 | 0.00 | 0.00 | 0.00 | 50 | 1005.8 |
| 20260509204528 | 18 | 144 | 9.7 | 16.1 | 0.00 | 0.00 | 0.00 | 51 | 1006.0 |
| 20260509203528 | 18 | 78 | 12.9 | 20.9 | 0.00 | 0.00 | 0.00 | 51 | 1006.2 |
| 20260509202519 | 18 | 115 | 11.3 | 16.1 | 0.00 | 0.00 | 0.00 | 51 | 1006.3 |
| 20260509201533 | 19 | 67 | 11.3 | 17.7 | 0.00 | 0.00 | 0.00 | 49 | 1006.5 |
| 20260509200537 | 19 | 80 | 8.0 | 19.3 | 0.00 | 0.00 | 0.00 | 48 | 1006.6 |
| 20260509195526 | 19 | 133 | 8.0 | 12.9 | 0.00 | 0.00 | 0.00 | 50 | 1006.7 |
| 20260509194521 | 19 | 90 | 8.0 | 12.9 | 0.00 | 0.00 | 0.00 | 51 | 1006.7 |
| 20260509193527 | 19 | 70 | 11.3 | 16.1 | 0.00 | 0.00 | 0.00 | 50 | 1007.1 |
| 20260509192523 | 19 | 107 | 12.9 | 16.1 | 0.00 | 0.00 | 0.00 | 51 | 1007.1 |
| 20260509191517 | 20 | 126 | 8.0 | 12.9 | 0.00 | 0.00 | 0.00 | 50 | 1007.3 |
| 20260509190518 | 18 | 102 | 8.0 | 11.3 | 0.00 | 0.00 | 0.00 | 51 | 1007.4 |
| 20260509185533 | 19 | 106 | 9.7 | 22.5 | 0.00 | 0.00 | 0.00 | 52 | 1007.5 |
| 20260509184528 | 18 | 115 | 8.0 | 11.3 | 0.00 | 0.00 | 0.00 | 52 | 1007.5 |
| 20260509183523 | 19 | 83 | 9.7 | 14.5 | 0.00 | 0.00 | 0.00 | 49 | 1007.5 |
| 20260509182518 | 19 | 141 | 8.0 | 12.9 | 0.00 | 0.00 | 0.00 | 49 | 1007.4 |
| 20260509181531 | 19 | 104 | 8.0 | 16.1 | 0.00 | 0.00 | 0.00 | 49 | 1007.3 |
| 20260509180527 | 19 | 72 | 8.0 | 14.5 | 0.00 | 0.00 | 0.00 | 50 | 1007.4 |
| 20260509175542 | 19 | 100 | 6.4 | 11.3 | 0.00 | 0.00 | 0.00 | 52 | 1007.5 |
| 20260509174517 | 18 | 79 | 6.4 | 9.7 | 0.00 | 0.00 | 0.00 | 50 | 1007.8 |
| 20260509173531 | 20 | 58 | 9.7 | 14.5 | 0.00 | 0.00 | 0.00 | 50 | 1007.7 |
| 20260509172526 | 19 | 92 | 6.4 | 9.7 | 0.00 | 0.00 | 0.00 | 51 | 1007.6 |
| 20260509171543 | 19 | 81 | 6.4 | 11.3 | 0.00 | 0.00 | 0.00 | 52 | 1007.8 |
| 20260509170517 | 18 | 90 | 8.0 | 14.5 | 0.00 | 0.00 | 0.00 | 53 | 1007.7 |
| 20260509165531 | 18 | 99 | 6.4 | 9.7 | 0.00 | 0.00 | 0.00 | 53 | 1007.7 |
| 20260509164525 | 18 | 86 | 4.8 | 8.0 | 0.00 | 0.00 | 0.00 | 57 | 1007.7 |
| 20260509163521 | 17 | 82 | 6.4 | 8.0 | 0.00 | 0.00 | 0.00 | 58 | 1007.9 |
| 20260509162518 | 17 | 101 | 8.0 | 9.7 | 0.00 | 0.00 | 0.00 | 57 | 1008.1 |
| 20260509161530 | 17 | 82 | 4.8 | 6.4 | 0.00 | 0.00 | 0.00 | 59 | 1008.2 |
| 20260509160526 | 17 | 83 | 6.4 | 9.7 | 0.00 | 0.00 | 0.00 | 59 | 1008.3 |
| 20260509155523 | 17 | 89 | 4.8 | 8.0 | 0.00 | 0.00 | 0.00 | 64 | 1008.3 |
| 20260509154535 | 16 | 82 | 4.8 | 8.0 | 0.00 | 0.00 | 0.00 | 68 | 1008.4 |
| 20260509153523 | 15 | 90 | 3.2 | 4.8 | 0.00 | 0.00 | 0.00 | 69 | 1008.5 |
| 20260509152524 | 15 | 95 | 1.6 | 4.8 | 0.00 | 0.00 | 0.00 | 72 | 1008.3 |
| 20260509151525 | 15 | 120 | 3.2 | 6.4 | 0.00 | 0.00 | 0.00 | 75 | 1008.3 |
| 20260509150520 | 13 | 92 | 3.2 | 6.4 | 0.00 | 0.00 | 0.00 | 78 | 1008.3 |
| 20260509145515 | 13 | 73 | 3.2 | 6.4 | 0.00 | 0.00 | 0.00 | 79 | 1008.3 |
| 20260509144529 | 13 | 92 | 3.2 | 8.0 | 0.00 | 0.00 | 0.00 | 82 | 1008.3 |
| 20260509143520 | 12 | 99 | 3.2 | 6.4 | 0.00 | 0.00 | 0.00 | 84 | 1008.3 |
| 20260509142520 | 12 | 91 | 3.2 | 6.4 | 0.00 | 0.00 | 0.00 | 84 | 1008.3 |
| 20260509141529 | 12 | 104 | 3.2 | 6.4 | 0.00 | 0.00 | 0.00 | 84 | 1008.5 |
| 20260509140524 | 12 | 82 | 4.8 | 6.4 | 0.00 | 0.00 | 0.00 | 85 | 1008.5 |
| 20260509135547 | 12 | 91 | 4.8 | 6.4 | 0.00 | 0.00 | 0.00 | 86 | 1008.4 |
| 20260509134521 | 12 | 77 | 3.2 | 8.0 | 0.00 | 0.00 | 0.00 | 87 | 1008.3 |
| 20260509133533 | 12 | 122 | 3.2 | 6.4 | 0.00 | 0.00 | 0.00 | 90 | 1008.6 |
| 20260509132525 | 11 | 111 | 1.6 | 8.0 | 0.00 | 0.00 | 0.00 | 93 | 1008.4 |
| 20260509131522 | 11 | 118 | 4.8 | 9.7 | 0.00 | 0.00 | 0.00 | 93 | 1008.3 |
| 20260509130552 | 10 | 111 | 1.6 | 4.8 | 0.00 | 0.00 | 0.00 | 94 | 1008.4 |
| 20260509125521 | 10 | 102 | 3.2 | 6.4 | 0.00 | 0.00 | 0.00 | 95 | 1008.5 |
| 20260509124516 | 10 | 76 | 3.2 | 11.3 | 0.00 | 0.00 | 0.00 | 95 | 1008.5 |
| 20260509123518 | 10 | 100 | 4.8 | 8.0 | 0.00 | 0.00 | 0.00 | 96 | 1008.7 |
| 20260509122532 | 10 | 102 | 3.2 | 4.8 | 0.00 | 0.00 | 0.00 | 97 | 1008.9 |
| 20260509121528 | 10 | 124 | 1.6 | 4.8 | 0.00 | 0.00 | 0.00 | 97 | 1008.7 |
| 20260509120524 | 10 | 98 | 3.2 | 6.4 | 0.00 | 0.00 | 0.00 | 97 | 1008.7 |
| 20260509115519 | 9 | 106 | 3.2 | 4.8 | 0.00 | 0.00 | 0.00 | 97 | 1008.6 |
| 20260509114533 | 9 | 95 | 4.8 | 6.4 | 0.00 | 0.00 | 0.00 | 97 | 1008.8 |
| 20260509113548 | 9 | 100 | 1.6 | 4.8 | 0.00 | 0.00 | 0.00 | 97 | 1008.7 |
| 20260509112523 | 9 | 72 | 3.2 | 6.4 | 0.00 | 0.00 | 0.00 | 97 | 1008.6 |
| 20260509111523 | 9 | 96 | 3.2 | 4.8 | 0.00 | 0.00 | 0.00 | 97 | 1008.6 |
| 20260509110559 | 9 | 113 | 1.6 | 4.8 | 0.00 | 0.00 | 0.00 | 97 | 1008.5 |
| 20260509105528 | 9 | 105 | 3.2 | 4.8 | 0.00 | 0.00 | 0.00 | 97 | 1008.4 |
| 20260509104522 | 9 | 130 | 1.6 | 3.2 | 0.00 | 0.00 | 0.00 | 97 | 1008.5 |